Time;durP1;ratioP1;P1;durP2;ratioP2;P2;SDS_P1;SDS_P2;PMS_P1;PMS_P2;Temp;Humidity;BMP_temperature;BMP_pressure;BME280_temperature;BME280_humidity;BME280_pressure;Samples;Min_cycle;Max_cycle;Signal;HPM_P1;HPM_P2
2021/12/09 00:00:19;;;;;;;6.53;1.08;;;;;;;4.05;100.00;99093.44;5081969;28;20123;-48
2021/12/09 00:02:45;;;;;;;7.57;1.05;;;;;;;4.10;100.00;99086.66;5082210;28;20039;-51
2021/12/09 00:05:13;;;;;;;5.75;1.10;;;;;;;4.08;100.00;99099.16;5082989;28;20032;-47
2021/12/09 00:07:41;;;;;;;1.92;0.50;;;;;;;4.07;100.00;99089.66;5083315;28;20063;-47
2021/12/09 00:10:08;;;;;;;10.35;0.63;;;;;;;4.07;100.00;99094.88;5080482;28;20038;-50
2021/12/09 00:12:34;;;;;;;6.63;1.05;;;;;;;4.08;100.00;99077.34;5064623;28;20046;-49
2021/12/09 00:15:00;;;;;;;3.92;0.52;;;;;;;4.03;100.00;99077.91;5080706;28;20040;-47
2021/12/09 00:17:25;;;;;;;2.03;0.50;;;;;;;4.09;100.00;99087.66;5082656;28;20020;-49
2021/12/09 00:19:51;;;;;;;3.28;0.32;;;;;;;4.17;100.00;99080.69;5083173;28;20028;-48
2021/12/09 00:22:16;;;;;;;6.85;2.88;;;;;;;4.23;100.00;99080.75;5084843;28;20031;-47
2021/12/09 00:24:41;;;;;;;8.52;1.40;;;;;;;4.27;100.00;99079.41;5086798;28;20033;-48
2021/12/09 00:27:07;;;;;;;17.48;0.82;;;;;;;4.34;100.00;99074.25;5086987;28;20040;-48
2021/12/09 00:29:32;;;;;;;6.00;1.95;;;;;;;4.29;100.00;99072.16;5086824;28;20024;-47
2021/12/09 00:31:58;;;;;;;11.35;0.88;;;;;;;4.21;100.00;99080.16;5086608;28;20123;-48
2021/12/09 00:34:35;;;;;;;10.23;2.72;;;;;;;4.17;100.00;99075.44;5087826;28;20039;-47
2021/12/09 00:37:18;;;;;;;9.00;0.93;;;;;;;4.10;100.00;99075.34;5088977;28;20552;-47
2021/12/09 00:39:44;;;;;;;4.55;0.98;;;;;;;4.15;100.00;99080.88;5086132;28;20032;-49
2021/12/09 00:42:10;;;;;;;6.97;1.08;;;;;;;4.12;100.00;99089.91;5083991;28;20103;-49
2021/12/09 00:44:36;;;;;;;11.63;0.77;;;;;;;4.11;100.00;99090.91;5087078;28;20107;-50
2021/12/09 00:47:03;;;;;;;4.22;1.65;;;;;;;4.06;100.00;99084.59;5070522;28;20032;-49
2021/12/09 00:49:30;;;;;;;5.88;0.98;;;;;;;4.02;100.00;99093.81;5087786;28;20082;-49
2021/12/09 00:51:57;;;;;;;7.28;0.57;;;;;;;3.97;100.00;99099.59;5088202;28;20047;-51
2021/12/09 00:54:22;;;;;;;8.18;1.02;;;;;;;3.95;100.00;99104.25;5085137;28;20086;-48
2021/12/09 00:56:48;;;;;;;10.18;1.52;;;;;;;3.95;100.00;99106.88;5088579;28;20032;-48
2021/12/09 00:59:13;;;;;;;8.13;1.23;;;;;;;3.92;100.00;99109.81;5080802;28;20485;-50
2021/12/09 01:01:38;;;;;;;8.35;1.23;;;;;;;3.91;100.00;99121.31;5087872;28;20028;-47
2021/12/09 01:04:04;;;;;;;9.60;0.88;;;;;;;3.86;100.00;99111.38;5087733;28;20029;-49
2021/12/09 01:06:30;;;;;;;5.55;0.85;;;;;;;3.82;100.00;99117.16;5088313;28;20497;-47
2021/12/09 01:08:55;;;;;;;5.22;0.73;;;;;;;3.77;100.00;99122.13;5087776;28;20110;-47
2021/12/09 01:11:20;;;;;;;8.85;1.10;;;;;;;3.80;100.00;99130.44;5089152;28;20173;-51
2021/12/09 01:13:46;;;;;;;9.00;1.20;;;;;;;3.86;100.00;99128.91;5088502;28;20043;-47
2021/12/09 01:16:12;;;;;;;7.38;1.10;;;;;;;3.84;100.00;99129.09;5087549;28;20142;-47
2021/12/09 01:18:39;;;;;;;10.18;1.02;;;;;;;3.84;100.00;99136.16;5087929;28;20024;-46
2021/12/09 01:21:05;;;;;;;6.55;0.68;;;;;;;3.83;100.00;99137.97;5069591;28;20028;-47
2021/12/09 01:23:31;;;;;;;7.43;1.02;;;;;;;3.92;100.00;99144.75;5088034;28;20036;-49
2021/12/09 01:26:01;;;;;;;13.57;2.25;;;;;;;3.91;100.00;99155.41;5087526;28;20040;-47
2021/12/09 01:28:30;;;;;;;6.80;0.70;;;;;;;4.05;100.00;99149.38;5087413;28;20036;-49
2021/12/09 01:31:04;;;;;;;3.40;0.75;;;;;;;4.10;100.00;99167.97;5085973;28;20035;-49
2021/12/09 01:33:32;;;;;;;6.78;0.70;;;;;;;4.11;100.00;99166.19;5087373;28;20031;-48
2021/12/09 01:35:58;;;;;;;8.35;2.13;;;;;;;4.02;100.00;99168.06;5088055;28;20038;-47
2021/12/09 01:38:27;;;;;;;6.72;0.73;;;;;;;3.93;100.00;99177.03;5087538;28;20039;-47
2021/12/09 01:40:53;;;;;;;4.28;1.08;;;;;;;3.98;100.00;99176.50;5083135;28;20620;-50
2021/12/09 01:43:18;;;;;;;6.28;1.58;;;;;;;3.90;100.00;99182.66;5079883;28;20115;-50
2021/12/09 01:45:44;;;;;;;1.85;0.30;;;;;;;3.74;100.00;99183.59;5080204;28;20052;-47
2021/12/09 01:48:09;;;;;;;3.50;0.08;;;;;;;3.71;100.00;99178.72;5084861;28;20032;-50
2021/12/09 01:50:35;;;;;;;9.00;0.50;;;;;;;3.70;100.00;99182.34;5086946;28;20108;-49
2021/12/09 01:53:03;;;;;;;2.00;0.40;;;;;;;3.67;100.00;99178.25;5085299;28;20040;-50
2021/12/09 01:55:30;;;;;;;10.25;0.88;;;;;;;3.68;100.00;99192.19;5087318;28;20428;-49
2021/12/09 01:57:55;;;;;;;6.65;0.82;;;;;;;3.74;100.00;99190.66;5087417;28;20485;-47
2021/12/09 02:00:25;;;;;;;5.95;1.27;;;;;;;3.70;100.00;99191.00;5086027;28;20047;-48
2021/12/09 02:02:52;;;;;;;6.45;1.65;;;;;;;3.74;100.00;99195.88;5083892;28;20036;-49
2021/12/09 02:05:17;;;;;;;6.72;0.45;;;;;;;3.67;100.00;99196.63;5081680;28;20036;-49
2021/12/09 02:07:43;;;;;;;6.03;1.50;;;;;;;3.69;100.00;99196.41;5087358;28;20042;-49
2021/12/09 02:10:10;;;;;;;12.57;1.30;;;;;;;3.59;100.00;99196.69;5087193;28;20071;-51
2021/12/09 02:12:36;;;;;;;5.95;0.52;;;;;;;3.43;100.00;99202.88;5087337;28;20415;-47
2021/12/09 02:15:02;;;;;;;2.22;0.73;;;;;;;3.43;100.00;99205.50;5085842;28;20028;-48
2021/12/09 02:17:29;;;;;;;5.25;1.00;;;;;;;3.31;100.00;99209.53;5087741;28;20378;-50
2021/12/09 02:20:01;;;;;;;11.15;1.13;;;;;;;3.38;100.00;99210.47;5084993;28;20036;-50
2021/12/09 02:22:29;;;;;;;3.25;0.30;;;;;;;3.40;100.00;99212.88;5086836;28;20126;-47
2021/12/09 02:24:55;;;;;;;10.00;1.58;;;;;;;3.33;100.00;99218.03;5086835;28;20035;-47
2021/12/09 02:27:22;;;;;;;6.50;0.90;;;;;;;3.19;100.00;99232.69;5086907;28;20036;-47
2021/12/09 02:29:49;;;;;;;6.85;0.45;;;;;;;3.09;100.00;99233.91;5082457;28;20110;-48
2021/12/09 02:32:14;;;;;;;9.50;1.20;;;;;;;3.01;100.00;99238.19;5087279;28;20031;-53
2021/12/09 02:34:39;;;;;;;1.50;0.20;;;;;;;3.02;100.00;99241.59;5086186;28;20085;-50
2021/12/09 02:37:05;;;;;;;12.82;1.65;;;;;;;3.25;100.00;99245.09;5084880;28;20101;-48
2021/12/09 02:39:30;;;;;;;5.28;1.88;;;;;;;3.33;100.00;99249.47;5085801;28;20030;-48
2021/12/09 02:41:56;;;;;;;6.18;0.80;;;;;;;3.30;100.00;99246.38;5089046;28;20123;-49
2021/12/09 02:44:23;;;;;;;10.80;0.57;;;;;;;3.30;100.00;99247.16;5085592;28;20059;-47
2021/12/09 02:46:53;;;;;;;6.60;1.13;;;;;;;3.28;100.00;99246.56;5087017;28;20069;-47
2021/12/09 02:49:20;;;;;;;6.50;1.55;;;;;;;3.32;100.00;99247.00;5085624;28;20035;-48
2021/12/09 02:51:49;;;;;;;7.43;0.90;;;;;;;3.35;100.00;99249.28;5085056;28;20038;-47
2021/12/09 02:54:17;;;;;;;7.43;1.30;;;;;;;3.22;100.00;99245.41;5080289;28;20028;-47
2021/12/09 02:56:45;;;;;;;2.88;1.58;;;;;;;3.19;100.00;99251.00;5086629;28;20024;-47
2021/12/09 02:59:11;;;;;;;11.70;1.33;;;;;;;3.19;100.00;99250.19;5086351;28;20166;-49
2021/12/09 03:01:46;;;;;;;0.47;0.45;;;;;;;3.16;100.00;99256.59;5085558;28;20041;-47
2021/12/09 03:04:12;;;;;;;6.63;1.23;;;;;;;3.17;100.00;99255.59;5083199;28;20047;-47
2021/12/09 03:06:42;;;;;;;4.95;1.77;;;;;;;3.28;100.00;99251.78;5085853;28;20038;-53
2021/12/09 03:09:14;;;;;;;4.25;0.55;;;;;;;3.37;100.00;99255.16;5081506;28;20155;-48
2021/12/09 03:11:40;;;;;;;6.80;1.63;;;;;;;3.33;100.00;99259.09;5080741;28;20105;-49
2021/12/09 03:14:06;;;;;;;3.78;1.02;;;;;;;3.40;100.00;99252.19;5085749;28;20181;-47
2021/12/09 03:16:32;;;;;;;7.40;1.25;;;;;;;3.36;100.00;99254.34;5081086;28;20040;-50
2021/12/09 03:19:03;;;;;;;9.95;1.90;;;;;;;3.30;100.00;99260.28;5085339;28;20076;-50
2021/12/09 03:21:37;;;;;;;10.93;1.20;;;;;;;3.24;100.00;99261.78;5084316;28;20066;-49
2021/12/09 03:24:06;;;;;;;6.90;0.32;;;;;;;3.23;100.00;99257.53;5067637;28;20036;-48
2021/12/09 03:26:36;;;;;;;2.70;0.63;;;;;;;3.33;100.00;99266.97;5085277;28;20043;-50
2021/12/09 03:29:05;;;;;;;4.30;1.00;;;;;;;3.36;100.00;99269.25;5079981;28;20040;-48
2021/12/09 03:31:31;;;;;;;6.03;0.43;;;;;;;3.35;100.00;99257.13;5083295;28;20032;-50
2021/12/09 03:33:58;;;;;;;9.27;0.20;;;;;;;3.38;100.00;99272.50;5085726;28;20046;-48
2021/12/09 03:36:28;;;;;;;9.00;0.40;;;;;;;3.44;100.00;99263.97;5084203;28;20377;-49
2021/12/09 03:38:54;;;;;;;12.10;2.15;;;;;;;3.35;100.00;99278.91;5082630;28;20040;-47
2021/12/09 03:41:20;;;;;;;6.38;0.60;;;;;;;3.26;100.00;99265.06;5084942;28;20557;-48
2021/12/09 03:43:46;;;;;;;4.57;0.52;;;;;;;3.23;100.00;99275.06;5086202;28;20064;-48
2021/12/09 03:46:12;;;;;;;7.97;0.57;;;;;;;3.33;100.00;99277.44;5084368;28;20464;-48
2021/12/09 03:48:37;;;;;;;4.85;0.73;;;;;;;3.30;100.00;99281.22;5085538;28;20086;-48
2021/12/09 03:51:02;;;;;;;7.05;1.23;;;;;;;3.32;100.00;99286.31;5085115;28;20024;-52
2021/12/09 03:53:29;;;;;;;9.57;0.73;;;;;;;3.41;100.00;99277.41;5084697;28;20034;-52
2021/12/09 03:55:55;;;;;;;8.57;0.60;;;;;;;3.48;100.00;99283.56;5073828;28;20093;-47
2021/12/09 03:58:20;;;;;;;10.77;0.50;;;;;;;3.56;100.00;99285.31;5082989;28;20497;-48
2021/12/09 04:00:47;;;;;;;13.35;0.50;;;;;;;3.65;100.00;99286.91;5084003;28;20388;-48
2021/12/09 04:03:12;;;;;;;4.75;2.38;;;;;;;3.66;100.00;99284.09;5084888;28;20040;-48
2021/12/09 04:05:38;;;;;;;10.73;0.47;;;;;;;3.61;100.00;99290.84;5078495;28;20020;-49
2021/12/09 04:08:04;;;;;;;1.88;0.40;;;;;;;3.55;100.00;99287.13;5080902;28;20036;-50
2021/12/09 04:10:31;;;;;;;4.93;1.27;;;;;;;3.49;100.00;99301.75;5073030;28;20503;-47
2021/12/09 04:12:58;;;;;;;3.65;0.85;;;;;;;3.38;100.00;99299.53;5085957;28;20102;-49
2021/12/09 04:15:24;;;;;;;4.55;0.88;;;;;;;3.36;100.00;99298.09;5085051;28;20024;-50
2021/12/09 04:17:49;;;;;;;5.22;0.82;;;;;;;3.30;100.00;99293.53;5084401;28;20051;-49
2021/12/09 04:20:15;;;;;;;12.40;2.70;;;;;;;3.32;100.00;99296.78;5085113;28;20081;-47
2021/12/09 04:22:48;;;;;;;3.47;0.20;;;;;;;3.16;100.00;99289.84;5084612;28;20024;-50
2021/12/09 04:25:18;;;;;;;4.30;0.50;;;;;;;3.19;100.00;99306.03;5085303;28;20067;-47
2021/12/09 04:27:44;;;;;;;1.48;0.85;;;;;;;3.24;100.00;99298.47;5084333;28;20040;-49
2021/12/09 04:30:11;;;;;;;5.30;0.28;;;;;;;3.14;100.00;99303.09;5084559;28;20028;-47
2021/12/09 04:32:36;;;;;;;4.22;1.75;;;;;;;3.11;100.00;99313.13;5084266;28;20028;-47
2021/12/09 04:35:02;;;;;;;5.32;0.88;;;;;;;3.00;100.00;99311.69;5087222;28;20549;-48
2021/12/09 04:37:28;;;;;;;5.13;0.57;;;;;;;3.07;100.00;99317.84;5084206;28;20063;-49
2021/12/09 04:39:53;;;;;;;3.35;0.60;;;;;;;2.94;100.00;99313.16;5084606;28;20055;-50
2021/12/09 04:42:18;;;;;;;4.82;0.50;;;;;;;2.78;100.00;99318.47;5083752;28;20040;-50
2021/12/09 04:44:44;;;;;;;7.72;1.10;;;;;;;2.56;100.00;99330.50;5085229;28;20155;-49
2021/12/09 04:47:10;;;;;;;2.97;0.10;;;;;;;2.50;100.00;99331.16;5084626;28;20107;-47
2021/12/09 04:49:35;;;;;;;3.55;0.40;;;;;;;2.46;100.00;99340.31;5084543;28;20091;-48
2021/12/09 04:52:01;;;;;;;0.73;0.70;;;;;;;2.55;100.00;99347.16;5084491;28;20028;-50
2021/12/09 04:54:27;;;;;;;2.08;0.50;;;;;;;2.62;100.00;99351.56;5084866;28;20125;-49
2021/12/09 04:56:53;;;;;;;8.77;0.50;;;;;;;2.43;100.00;99351.94;5068665;28;20071;-50
2021/12/09 04:59:19;;;;;;;7.55;1.27;;;;;;;2.30;100.00;99351.63;5084422;28;20071;-50
2021/12/09 05:01:49;;;;;;;2.05;0.35;;;;;;;2.23;100.00;99354.09;5083022;28;20036;-49
2021/12/09 05:04:14;;;;;;;7.07;0.45;;;;;;;2.37;100.00;99353.41;5083407;28;20028;-48
2021/12/09 05:06:40;;;;;;;5.28;0.93;;;;;;;2.42;100.00;99359.94;5084018;28;20047;-48
2021/12/09 05:09:10;;;;;;;4.03;0.68;;;;;;;2.32;100.00;99365.34;5087849;28;20043;-49
2021/12/09 05:14:03;;;;;;;2.60;1.10;;;;;;;2.42;100.00;99375.66;5088838;28;20032;-48
2021/12/09 05:16:30;;;;;;;2.22;1.35;;;;;;;2.27;100.00;99376.31;5087412;28;20054;-49
2021/12/09 05:18:58;;;;;;;6.97;0.77;;;;;;;2.05;100.00;99379.59;5069890;28;20461;-47
2021/12/09 05:21:36;;;;;;;4.10;0.38;;;;;;;2.15;100.00;99380.25;5086999;28;20598;-47
2021/12/09 05:24:03;;;;;;;3.25;0.20;;;;;;;2.10;100.00;99377.31;5088353;28;20036;-47
2021/12/09 05:26:34;;;;;;;4.75;1.05;;;;;;;1.89;100.00;99383.00;5087066;28;20040;-47
2021/12/09 05:29:00;;;;;;;6.30;0.52;;;;;;;1.73;100.00;99383.81;5088118;28;20795;-51
2021/12/09 05:34:11;;;;;;;1.88;0.10;;;;;;;1.39;100.00;99392.50;5087952;28;20075;-47
2021/12/09 05:36:37;;;;;;;2.97;0.20;;;;;;;1.70;100.00;99389.31;5087358;28;20831;-48
2021/12/09 05:39:06;;;;;;;4.72;0.38;;;;;;;1.84;100.00;99400.97;5088900;28;20036;-49
2021/12/09 05:41:33;;;;;;;2.97;0.40;;;;;;;1.78;100.00;99399.78;5089711;28;20040;-50
2021/12/09 05:43:59;;;;;;;0.30;0.10;;;;;;;1.73;100.00;99399.47;5088058;28;20035;-48
2021/12/09 05:46:25;;;;;;;7.97;0.57;;;;;;;1.74;100.00;99398.50;5087496;28;20455;-47
2021/12/09 05:48:50;;;;;;;6.32;0.28;;;;;;;1.64;100.00;99397.81;5088497;28;20118;-48
2021/12/09 05:51:16;;;;;;;0.43;0.10;;;;;;;1.57;100.00;99391.59;5086425;28;20107;-47
2021/12/09 05:53:41;;;;;;;0.25;0.15;;;;;;;1.56;100.00;99389.97;5088787;28;20032;-48
2021/12/09 05:56:07;;;;;;;1.70;0.38;;;;;;;1.55;100.00;99386.53;5069064;28;20401;-47
2021/12/09 05:58:32;;;;;;;3.63;0.93;;;;;;;1.57;100.00;99394.19;5082749;28;20182;-47
2021/12/09 06:00:58;;;;;;;4.60;0.55;;;;;;;1.59;100.00;99389.63;5085945;28;20074;-47
2021/12/09 06:03:23;;;;;;;10.85;2.28;;;;;;;1.43;100.00;99385.19;5085906;28;20405;-48
2021/12/09 06:05:50;;;;;;;6.32;0.40;;;;;;;1.43;100.00;99391.22;5079083;28;20040;-47
2021/12/09 06:08:16;;;;;;;9.55;1.25;;;;;;;1.35;100.00;99393.00;5069077;28;20565;-51
2021/12/09 06:10:42;;;;;;;3.40;0.20;;;;;;;1.17;100.00;99390.50;5087303;28;20044;-47
2021/12/09 06:13:07;;;;;;;0.50;0.20;;;;;;;1.10;100.00;99390.28;5086603;28;20039;-52
2021/12/09 06:15:33;;;;;;;6.63;0.15;;;;;;;0.99;100.00;99378.31;5087521;28;20449;-51
2021/12/09 06:17:58;;;;;;;4.00;0.65;;;;;;;0.83;100.00;99388.69;5086554;28;20032;-46
2021/12/09 06:20:27;;;;;;;11.90;1.60;;;;;;;0.79;100.00;99389.97;5086364;28;20076;-47
2021/12/09 06:22:52;;;;;;;0.57;0.20;;;;;;;0.72;100.00;99386.34;5076530;28;20043;-48
2021/12/09 06:25:19;;;;;;;3.40;0.75;;;;;;;0.67;100.00;99380.75;5086596;28;20088;-48
2021/12/09 06:27:48;;;;;;;3.67;1.05;;;;;;;0.71;100.00;99376.88;5082697;28;20040;-49
2021/12/09 06:30:15;;;;;;;5.22;1.65;;;;;;;0.62;100.00;99374.22;5084843;28;20036;-48
2021/12/09 06:32:41;;;;;;;6.72;0.32;;;;;;;0.54;100.00;99375.94;5087686;28;20031;-49
2021/12/09 06:35:07;;;;;;;3.30;0.55;;;;;;;0.50;100.00;99378.06;5085942;28;20032;-50
2021/12/09 06:37:35;;;;;;;7.15;0.85;;;;;;;0.45;100.00;99377.69;5086668;28;20036;-51
2021/12/09 06:40:01;;;;;;;3.13;0.52;;;;;;;0.41;100.00;99397.22;5086315;28;20472;-46
2021/12/09 06:42:26;;;;;;;5.70;0.20;;;;;;;0.50;100.00;99398.13;5086511;28;20036;-49
2021/12/09 06:44:52;;;;;;;6.18;0.40;;;;;;;0.68;100.00;99406.72;5086692;28;20476;-48
2021/12/09 06:47:17;;;;;;;5.60;0.95;;;;;;;0.78;100.00;99410.03;5087034;28;20110;-49
2021/12/09 06:49:43;;;;;;;3.45;0.32;;;;;;;0.94;100.00;99416.31;5086345;28;20075;-50
2021/12/09 06:52:09;;;;;;;5.63;0.38;;;;;;;1.06;100.00;99415.91;5056937;28;20042;-54
2021/12/09 06:54:34;;;;;;;3.53;0.50;;;;;;;1.00;100.00;99419.09;5082243;28;20032;-49
2021/12/09 06:57:00;;;;;;;1.90;0.10;;;;;;;1.05;100.00;99423.88;5086812;28;20046;-47
2021/12/09 06:59:25;;;;;;;1.45;0.22;;;;;;;1.06;100.00;99426.34;5085860;28;20040;-46
2021/12/09 07:01:50;;;;;;;6.80;0.73;;;;;;;0.99;100.00;99427.94;5084073;28;20128;-48
2021/12/09 07:04:16;;;;;;;4.78;0.90;;;;;;;0.87;100.00;99426.53;5084391;28;20040;-49
2021/12/09 07:06:41;;;;;;;1.90;0.68;;;;;;;0.74;100.00;99423.53;5085018;28;20097;-49
2021/12/09 07:09:07;;;;;;;2.30;0.32;;;;;;;0.72;100.00;99436.72;5085289;28;20043;-48
2021/12/09 07:11:33;;;;;;;1.88;0.57;;;;;;;0.70;100.00;99437.84;5085010;28;20074;-49
2021/12/09 07:13:59;;;;;;;1.55;0.30;;;;;;;0.61;100.00;99443.00;5076408;28;20485;-49
2021/12/09 07:16:25;;;;;;;14.25;1.63;;;;;;;0.71;100.00;99447.31;5084108;28;20488;-47
2021/12/09 07:18:51;;;;;;;4.82;0.70;;;;;;;0.64;100.00;99454.94;5085392;28;20089;-49
2021/12/09 07:21:16;;;;;;;10.65;1.77;;;;;;;0.62;100.00;99459.47;5081538;28;20465;-46
2021/12/09 07:23:42;;;;;;;2.30;0.65;;;;;;;0.65;100.00;99467.84;5084555;28;20067;-48
2021/12/09 07:26:07;;;;;;;2.33;0.45;;;;;;;0.58;100.00;99471.19;5084173;28;20105;-49
2021/12/09 07:28:33;;;;;;;3.70;0.45;;;;;;;0.53;100.00;99476.88;5084149;28;20323;-46
2021/12/09 07:30:58;;;;;;;8.55;1.17;;;;;;;0.59;100.00;99484.06;5081719;28;20423;-45
2021/12/09 07:33:23;;;;;;;5.25;0.65;;;;;;;0.58;100.00;99494.69;5078579;28;20063;-49
2021/12/09 07:35:49;;;;;;;3.30;0.20;;;;;;;0.65;100.00;99503.56;5085303;28;20113;-49
2021/12/09 07:38:15;;;;;;;7.20;0.50;;;;;;;0.85;100.00;99499.78;5084770;28;20070;-46
2021/12/09 07:40:40;;;;;;;3.83;0.50;;;;;;;0.82;100.00;99507.91;5084639;28;20043;-50
2021/12/09 07:43:06;;;;;;;1.95;0.20;;;;;;;0.75;100.00;99519.09;5087161;28;20031;-46
2021/12/09 07:45:31;;;;;;;6.28;0.43;;;;;;;0.71;100.00;99526.41;5084463;28;20036;-46
2021/12/09 07:47:58;;;;;;;1.30;0.20;;;;;;;0.72;100.00;99532.44;5084170;28;20038;-48
2021/12/09 07:50:28;;;;;;;12.80;1.13;;;;;;;0.61;100.00;99531.72;5081307;28;20039;-49
2021/12/09 07:52:54;;;;;;;5.25;0.40;;;;;;;0.54;100.00;99541.13;5083599;28;20040;-51
2021/12/09 07:55:21;;;;;;;6.05;0.80;;;;;;;0.76;100.00;99547.66;5066084;28;20501;-48
2021/12/09 07:57:48;;;;;;;0.35;0.10;;;;;;;0.88;100.00;99543.03;5081417;28;20031;-48
2021/12/09 08:00:20;;;;;;;7.47;0.75;;;;;;;0.88;100.00;99540.44;5081163;28;20063;-49
2021/12/09 08:02:47;;;;;;;6.22;0.25;;;;;;;0.82;100.00;99538.41;5082899;28;20032;-47
2021/12/09 08:05:14;;;;;;;5.00;0.25;;;;;;;0.80;100.00;99543.78;5082734;28;20031;-47
2021/12/09 08:07:41;;;;;;;1.08;0.68;;;;;;;0.89;100.00;99539.44;5082735;28;20441;-48
2021/12/09 08:10:09;;;;;;;2.08;0.00;;;;;;;0.97;100.00;99536.06;5080508;28;20053;-49
2021/12/09 08:12:35;;;;;;;8.75;0.30;;;;;;;0.99;100.00;99532.34;5080314;28;20024;-49
2021/12/09 08:15:01;;;;;;;15.48;1.02;;;;;;;0.86;100.00;99524.91;5061316;28;20104;-52
2021/12/09 08:20:08;;;;;;;4.57;0.22;;;;;;;0.69;100.00;99523.13;5083181;28;20044;-47
2021/12/09 08:22:33;;;;;;;4.85;0.82;;;;;;;0.72;100.00;99525.44;5081264;28;20093;-51
2021/12/09 08:24:59;;;;;;;3.17;0.60;;;;;;;0.74;100.00;99520.06;5081403;28;20450;-50
2021/12/09 08:27:25;;;;;;;3.38;0.65;;;;;;;0.71;100.00;99536.03;5080569;28;20102;-46
2021/12/09 08:29:51;;;;;;;1.38;0.40;;;;;;;0.75;100.00;99539.97;5084638;28;20391;-49
2021/12/09 08:32:16;;;;;;;4.65;0.65;;;;;;;0.85;100.00;99536.31;5085042;28;20039;-49
2021/12/09 08:34:42;;;;;;;4.40;0.10;;;;;;;1.05;100.00;99539.56;5084018;28;20028;-47
2021/12/09 08:37:08;;;;;;;5.25;0.15;;;;;;;1.23;100.00;99534.28;5085103;28;20028;-48
2021/12/09 08:39:33;;;;;;;4.55;0.52;;;;;;;1.33;100.00;99544.63;5084119;28;20024;-49
2021/12/09 08:41:59;;;;;;;2.45;0.35;;;;;;;1.31;100.00;99543.97;5084803;28;20027;-49
2021/12/09 08:44:24;;;;;;;2.55;0.60;;;;;;;1.27;100.00;99547.88;5088406;28;20039;-47
2021/12/09 08:46:50;;;;;;;3.80;0.65;;;;;;;1.23;100.00;99549.97;5088552;28;20473;-53
2021/12/09 08:49:15;;;;;;;4.70;0.75;;;;;;;1.30;100.00;99548.38;5070485;28;20031;-49
2021/12/09 08:51:42;;;;;;;0.10;0.10;;;;;;;1.33;100.00;99552.47;5085004;28;20039;-50
2021/12/09 08:54:08;;;;;;;0.95;0.28;;;;;;;1.37;100.00;99550.34;5087055;28;20081;-46
2021/12/09 08:56:34;;;;;;;2.45;0.63;;;;;;;1.48;100.00;99556.16;5084772;28;20047;-50
2021/12/09 08:59:03;;;;;;;1.60;0.60;;;;;;;1.47;100.00;99557.13;5084522;28;20035;-46
2021/12/09 09:01:29;;;;;;;4.18;0.98;;;;;;;1.45;100.00;99561.69;5088795;28;20043;-49
2021/12/09 09:03:54;;;;;;;2.20;0.28;;;;;;;1.41;100.00;99554.31;5088120;28;20105;-47
2021/12/09 09:06:19;;;;;;;6.53;1.52;;;;;;;1.33;100.00;99557.69;5081484;28;20039;-53
2021/12/09 09:08:45;;;;;;;5.63;0.77;;;;;;;1.39;100.00;99551.03;5080917;28;20036;-48
2021/12/09 09:11:10;;;;;;;3.05;0.40;;;;;;;1.42;100.00;99541.09;5088876;28;20036;-46
2021/12/09 09:13:36;;;;;;;6.43;1.30;;;;;;;1.38;100.00;99549.41;5083094;28;20085;-50
2021/12/09 09:16:01;;;;;;;3.90;0.43;;;;;;;1.36;100.00;99546.94;5086804;28;20498;-47
2021/12/09 09:18:27;;;;;;;5.55;0.50;;;;;;;1.41;100.00;99557.75;5078930;28;20036;-50
2021/12/09 09:20:52;;;;;;;4.85;0.43;;;;;;;1.44;100.00;99554.81;5080011;28;20105;-51
2021/12/09 09:23:22;;;;;;;0.52;0.20;;;;;;;1.49;100.00;99544.72;5081745;28;20529;-51
2021/12/09 09:25:48;;;;;;;9.50;0.70;;;;;;;1.55;100.00;99547.69;5084914;28;20046;-51
2021/12/09 09:28:14;;;;;;;7.22;0.38;;;;;;;1.57;100.00;99554.41;5088596;28;20448;-47
2021/12/09 09:30:45;;;;;;;9.05;2.00;;;;;;;1.59;100.00;99556.88;5085132;28;20443;-51
2021/12/09 09:33:14;;;;;;;5.47;0.88;;;;;;;1.56;100.00;99554.56;5088207;28;20419;-50
2021/12/09 09:35:42;;;;;;;3.25;1.25;;;;;;;1.61;100.00;99555.72;5079186;28;20136;-48
2021/12/09 09:38:08;;;;;;;8.20;0.88;;;;;;;1.63;100.00;99555.59;5087930;28;20032;-49
2021/12/09 09:40:40;;;;;;;3.88;2.03;;;;;;;1.69;100.00;99557.56;5087698;28;20028;-47
2021/12/09 09:43:25;;;;;;;1.27;0.20;;;;;;;1.74;100.00;99565.75;5087987;28;20938;-51
2021/12/09 09:45:52;;;;;;;6.72;1.65;;;;;;;1.78;100.00;99566.25;5076938;28;20036;-50
2021/12/09 09:48:18;;;;;;;7.60;1.10;;;;;;;1.86;100.00;99566.28;5081555;28;20438;-49
2021/12/09 09:50:44;;;;;;;7.53;1.73;;;;;;;1.99;100.00;99568.47;5087056;28;20028;-52
2021/12/09 09:53:10;;;;;;;6.13;0.73;;;;;;;2.13;100.00;99567.88;5088041;28;20502;-50
2021/12/09 09:55:36;;;;;;;8.13;1.48;;;;;;;2.28;100.00;99568.91;5087697;28;20182;-52
2021/12/09 09:58:03;;;;;;;3.72;1.10;;;;;;;2.35;100.00;99569.91;5087382;28;20036;-48
2021/12/09 10:00:28;;;;;;;2.28;0.85;;;;;;;2.37;100.00;99570.53;5083875;28;20423;-51
2021/12/09 10:02:54;;;;;;;7.63;1.67;;;;;;;2.38;100.00;99568.78;5087371;28;20454;-53
2021/12/09 10:05:27;;;;;;;3.83;1.77;;;;;;;2.38;100.00;99569.56;5086793;28;20384;-50
2021/12/09 10:07:53;;;;;;;5.47;0.20;;;;;;;2.43;100.00;99565.66;5072838;28;20111;-50
2021/12/09 10:10:18;;;;;;;6.00;0.25;;;;;;;2.47;100.00;99572.22;5077319;28;20165;-48
2021/12/09 10:13:06;;;;;;;4.63;0.80;;;;;;;2.54;100.00;99570.59;5084057;28;20477;-48
2021/12/09 10:15:51;;;;;;;4.97;2.42;;;;;;;2.64;100.00;99563.41;5087181;28;20040;-51
2021/12/09 10:18:38;;;;;;;7.10;0.32;;;;;;;2.70;100.00;99561.94;5085229;28;20035;-51
2021/12/09 10:21:09;;;;;;;5.57;0.35;;;;;;;2.76;100.00;99550.81;5081427;28;20448;-47
2021/12/09 10:23:45;;;;;;;6.25;0.30;;;;;;;2.81;100.00;99541.50;5085077;28;20119;-47
2021/12/09 10:26:26;;;;;;;9.45;1.05;;;;;;;2.90;100.00;99526.59;5082212;28;20047;-47
2021/12/09 10:28:53;;;;;;;5.78;0.65;;;;;;;2.93;100.00;99526.25;5084278;28;20028;-51
2021/12/09 10:31:28;;;;;;;1.00;0.20;;;;;;;3.15;100.00;99522.16;5084107;28;20040;-46
2021/12/09 10:34:04;;;;;;;4.03;0.40;;;;;;;3.28;100.00;99514.59;5081274;28;20546;-46
2021/12/09 10:36:40;;;;;;;2.45;0.20;;;;;;;3.33;100.00;99516.72;5081461;28;20873;-49
2021/12/09 10:39:19;;;;;;;1.77;0.30;;;;;;;3.35;100.00;99514.72;5075630;28;20405;-50
2021/12/09 10:41:44;;;;;;;5.05;0.95;;;;;;;3.44;100.00;99513.72;5082841;28;20088;-47
2021/12/09 10:44:11;;;;;;;3.95;1.00;;;;;;;3.51;100.00;99519.09;5089246;28;20039;-47
2021/12/09 10:46:56;;;;;;;4.20;0.50;;;;;;;3.71;100.00;99515.09;5082660;28;20032;-48
2021/12/09 10:49:22;;;;;;;10.07;1.50;;;;;;;3.89;100.00;99509.63;5081968;28;20028;-49
2021/12/09 10:51:59;;;;;;;4.57;1.75;;;;;;;4.05;100.00;99510.53;5086445;28;20359;-49
2021/12/09 10:54:37;;;;;;;8.70;0.68;;;;;;;4.32;100.00;99523.16;5086717;28;20480;-47
2021/12/09 10:57:23;;;;;;;5.35;0.70;;;;;;;4.49;100.00;99510.75;5070315;28;20048;-51
2021/12/09 10:59:48;;;;;;;8.43;1.90;;;;;;;4.47;100.00;99509.28;5082645;28;20089;-46
2021/12/09 11:02:14;;;;;;;4.38;1.35;;;;;;;4.38;100.00;99505.91;5085673;28;20015;-48
2021/12/09 11:04:39;;;;;;;4.65;0.63;;;;;;;4.30;100.00;99511.19;5079022;28;20021;-49
2021/12/09 11:07:27;;;;;;;4.13;0.90;;;;;;;4.35;100.00;99506.25;5085782;28;20032;-48
2021/12/09 11:10:14;;;;;;;12.13;0.93;;;;;;;4.43;100.00;99514.06;5072126;28;20444;-48
2021/12/09 11:12:48;;;;;;;4.22;0.47;;;;;;;4.47;100.00;99520.59;5079790;28;20042;-50
2021/12/09 11:15:15;;;;;;;4.20;0.50;;;;;;;4.48;100.00;99519.59;5082650;28;20081;-48
2021/12/09 11:17:42;;;;;;;6.28;1.00;;;;;;;4.51;100.00;99507.94;5085533;28;20043;-47
2021/12/09 11:20:08;;;;;;;6.60;0.80;;;;;;;4.59;100.00;99513.97;5085310;28;20089;-50
2021/12/09 11:22:37;;;;;;;16.00;0.82;;;;;;;4.80;100.00;99515.94;5089968;28;20036;-46
2021/12/09 11:25:03;;;;;;;1.95;0.50;;;;;;;5.12;100.00;99515.81;5080706;28;20046;-52
2021/12/09 11:27:30;;;;;;;7.03;1.13;;;;;;;5.20;100.00;99513.09;5083943;28;20040;-50
2021/12/09 11:30:09;;;;;;;4.00;0.22;;;;;;;5.27;100.00;99508.75;5084501;28;20039;-52
2021/12/09 11:35:19;;;;;;;4.50;1.25;;;;;;;5.47;100.00;99501.97;5085120;28;20042;-49
2021/12/09 11:37:57;;;;;;;5.45;0.50;;;;;;;5.51;100.00;99493.72;5084451;28;20111;-49
2021/12/09 11:43:06;;;;;;;3.17;1.00;;;;;;;5.64;100.00;99486.00;5085002;28;20055;-47
2021/12/09 11:45:44;;;;;;;4.40;0.98;;;;;;;5.66;100.00;99463.78;5085314;28;20024;-46